Time;durP1;ratioP1;P1;durP2;ratioP2;P2;SDS_P1;SDS_P2;PMS_P1;PMS_P2;Temp;Humidity;BMP_temperature;BMP_pressure;BME280_temperature;BME280_humidity;BME280_pressure;Samples;Min_cycle;Max_cycle;Signal;HPM_P1;HPM_P2
2023/09/06 00:01:30;;;;;;;6.75;2.67;;;;;;;;;;4988746;28;94787;-79
2023/09/06 00:03:57;;;;;;;9.52;2.85;;;;;;;;;;4990696;28;95457;-79
2023/09/06 00:06:24;;;;;;;6.88;2.72;;;;;;;;;;4971997;28;94622;-79
2023/09/06 00:08:53;;;;;;;6.82;2.47;;;;;;;;;;4990672;28;92495;-79
2023/09/06 00:11:20;;;;;;;6.97;2.60;;;;;;;;;;4990956;28;93343;-79
2023/09/06 00:13:46;;;;;;;6.05;2.58;;;;;;;;;;4972630;28;93232;-79
2023/09/06 00:16:15;;;;;;;5.03;2.33;;;;;;;;;;4993197;28;92505;-79
2023/09/06 00:18:41;;;;;;;5.53;2.50;;;;;;;;;;4956488;28;92495;-79
2023/09/06 00:21:08;;;;;;;7.00;2.75;;;;;;;;;;4990405;28;92543;-79
2023/09/06 00:23:35;;;;;;;5.85;2.60;;;;;;;;;;4972253;28;93152;-79
2023/09/06 00:26:02;;;;;;;8.20;2.60;;;;;;;;;;4988837;28;94882;-79
2023/09/06 00:28:28;;;;;;;7.40;2.63;;;;;;;;;;4954438;28;92878;-79
2023/09/06 00:30:57;;;;;;;;;;;;;;;;;;4990360;28;92757;-79
2023/09/06 00:33:26;;;;;;;5.00;2.25;;;;;;;;;;4973159;28;106468;-79
2023/09/06 00:35:54;;;;;;;16.08;2.97;;;;;;;;;;4972383;28;92530;-80
2023/09/06 00:38:20;;;;;;;5.47;2.20;;;;;;;;;;4993303;28;92869;-80
2023/09/06 00:40:53;;;;;;;6.28;2.35;;;;;;;;;;4972596;28;92812;-80
2023/09/06 00:43:19;;;;;;;4.90;2.17;;;;;;;;;;4975421;28;92915;-80
2023/09/06 00:45:48;;;;;;;4.78;2.20;;;;;;;;;;4972520;28;95972;-79
2023/09/06 00:48:26;;;;;;;5.55;2.22;;;;;;;;;;4975826;28;93229;-79
2023/09/06 00:50:54;;;;;;;6.47;2.33;;;;;;;;;;4970736;28;96570;-81
2023/09/06 00:53:21;;;;;;;7.00;2.30;;;;;;;;;;4971721;28;95831;-80
2023/09/06 00:55:49;;;;;;;4.65;2.00;;;;;;;;;;4971762;28;92558;-80
2023/09/06 00:58:17;;;;;;;5.75;2.30;;;;;;;;;;4972309;28;92705;-79
2023/09/06 01:00:44;;;;;;;4.82;2.30;;;;;;;;;;4974787;28;94628;-79
2023/09/06 01:03:10;;;;;;;5.63;2.50;;;;;;;;;;4972241;28;92654;-79
2023/09/06 01:05:48;;;;;;;6.72;2.40;;;;;;;;;;4971202;28;96640;-79
2023/09/06 01:08:28;;;;;;;6.70;2.45;;;;;;;;;;4990502;28;91911;-78
2023/09/06 01:11:10;;;;;;;5.25;2.13;;;;;;;;;;4989705;28;92936;-79
2023/09/06 01:13:36;;;;;;;7.45;2.50;;;;;;;;;;4989751;28;93728;-79
2023/09/06 01:16:03;;;;;;;6.15;2.55;;;;;;;;;;4987883;28;94932;-78
2023/09/06 01:18:30;;;;;;;6.00;2.45;;;;;;;;;;4955006;28;96309;-78
2023/09/06 01:21:02;;;;;;;4.25;2.13;;;;;;;;;;4970783;28;96306;-78
2023/09/06 01:23:32;;;;;;;10.73;2.88;;;;;;;;;;4958000;28;92688;-79
2023/09/06 01:25:58;;;;;;;5.90;2.53;;;;;;;;;;4988877;28;92997;-79
2023/09/06 01:28:27;;;;;;;6.22;2.70;;;;;;;;;;4954656;28;92457;-79
2023/09/06 01:30:55;;;;;;;5.60;2.70;;;;;;;;;;4970767;28;94253;-79
2023/09/06 01:33:24;;;;;;;6.25;2.47;;;;;;;;;;4990192;28;92361;-79
2023/09/06 01:35:51;;;;;;;5.80;2.67;;;;;;;;;;4989195;28;92445;-79
2023/09/06 01:38:18;;;;;;;5.55;2.50;;;;;;;;;;4989433;28;93241;-79
2023/09/06 01:40:44;;;;;;;4.80;2.35;;;;;;;;;;4969403;28;95982;-79
2023/09/06 01:43:11;;;;;;;6.00;2.78;;;;;;;;;;4989599;28;92726;-79
2023/09/06 01:45:44;;;;;;;5.95;2.60;;;;;;;;;;4973788;28;95536;-80
2023/09/06 01:48:11;;;;;;;6.25;2.80;;;;;;;;;;4989626;28;92581;-79
2023/09/06 01:50:39;;;;;;;6.85;2.95;;;;;;;;;;4989131;28;92406;-79
2023/09/06 01:53:05;;;;;;;5.65;2.50;;;;;;;;;;4970672;28;95888;-79
2023/09/06 01:55:32;;;;;;;6.88;2.92;;;;;;;;;;4970538;28;92873;-80
2023/09/06 01:57:59;;;;;;;8.90;2.70;;;;;;;;;;4955141;28;95415;-80
2023/09/06 02:00:29;;;;;;;6.00;2.53;;;;;;;;;;4970823;28;94754;-80
2023/09/06 02:02:56;;;;;;;6.95;2.83;;;;;;;;;;4970851;28;92526;-80
2023/09/06 02:05:23;;;;;;;5.95;2.80;;;;;;;;;;4989805;28;95421;-80
2023/09/06 02:07:50;;;;;;;6.93;2.40;;;;;;;;;;4989080;28;92428;-80
2023/09/06 02:10:17;;;;;;;7.82;2.60;;;;;;;;;;4970374;28;95183;-80
2023/09/06 02:12:44;;;;;;;5.85;2.55;;;;;;;;;;4988350;28;94997;-80
2023/09/06 02:15:14;;;;;;;4.88;2.35;;;;;;;;;;4988856;28;92428;-80
2023/09/06 02:17:42;;;;;;;5.72;2.55;;;;;;;;;;4970754;28;94165;-80
2023/09/06 02:20:19;;;;;;;6.20;2.28;;;;;;;;;;4970393;28;94546;-80
2023/09/06 02:22:48;;;;;;;6.65;2.67;;;;;;;;;;4991422;28;91654;-80
2023/09/06 02:25:16;;;;;;;5.75;2.80;;;;;;;;;;4991728;28;92470;-79
2023/09/06 02:27:42;;;;;;;7.18;2.80;;;;;;;;;;4994765;28;93218;-79
2023/09/06 02:30:09;;;;;;;6.88;2.60;;;;;;;;;;4990758;28;95458;-79
2023/09/06 02:32:36;;;;;;;7.15;2.70;;;;;;;;;;4991410;28;93148;-79
2023/09/06 02:35:03;;;;;;;6.60;2.63;;;;;;;;;;4973567;28;92695;-79
2023/09/06 02:37:29;;;;;;;14.65;2.83;;;;;;;;;;4992266;28;93601;-80
2023/09/06 02:39:56;;;;;;;7.40;2.83;;;;;;;;;;4991645;28;93119;-80
2023/09/06 02:42:22;;;;;;;5.90;2.80;;;;;;;;;;4992141;28;92432;-81
2023/09/06 02:44:50;;;;;;;6.70;2.83;;;;;;;;;;4974065;28;92959;-80
2023/09/06 02:47:17;;;;;;;6.05;2.45;;;;;;;;;;4974065;28;95742;-80
2023/09/06 02:49:45;;;;;;;6.10;2.60;;;;;;;;;;4994830;28;92571;-80
2023/09/06 02:52:20;;;;;;;5.85;2.60;;;;;;;;;;4991687;28;93045;-79
2023/09/06 02:54:47;;;;;;;6.90;2.83;;;;;;;;;;4971915;28;95078;-79
2023/09/06 02:57:16;;;;;;;7.22;2.65;;;;;;;;;;4973437;28;98290;-80
2023/09/06 02:59:43;;;;;;;6.85;3.05;;;;;;;;;;4991670;28;92426;-80
2023/09/06 03:02:12;;;;;;;6.93;3.00;;;;;;;;;;4973555;28;92711;-80
2023/09/06 03:04:40;;;;;;;6.57;3.00;;;;;;;;;;4973447;28;95202;-80
2023/09/06 03:07:08;;;;;;;5.97;2.63;;;;;;;;;;4973506;28;95480;-79
2023/09/06 03:09:38;;;;;;;5.95;2.60;;;;;;;;;;4973724;28;92632;-80
2023/09/06 03:12:14;;;;;;;6.20;2.75;;;;;;;;;;4995138;28;92826;-79
2023/09/06 03:14:44;;;;;;;6.45;3.00;;;;;;;;;;4958261;28;92439;-79
2023/09/06 03:17:11;;;;;;;6.47;2.95;;;;;;;;;;4976898;28;94064;-79
2023/09/06 03:19:41;;;;;;;7.65;2.90;;;;;;;;;;4959356;28;98044;-78
2023/09/06 03:22:12;;;;;;;7.50;2.65;;;;;;;;;;4990332;28;92628;-79
2023/09/06 03:24:40;;;;;;;8.63;2.83;;;;;;;;;;4973924;28;94349;-79
2023/09/06 03:27:15;;;;;;;6.63;2.70;;;;;;;;;;4973069;28;96246;-79
2023/09/06 03:29:43;;;;;;;6.82;2.88;;;;;;;;;;4973369;28;92509;-80
2023/09/06 03:32:10;;;;;;;6.35;2.50;;;;;;;;;;4969325;28;95576;-79
2023/09/06 03:34:40;;;;;;;5.78;2.70;;;;;;;;;;4972941;28;94402;-79
2023/09/06 03:37:08;;;;;;;7.47;2.80;;;;;;;;;;4970242;28;94444;-78
2023/09/06 03:39:40;;;;;;;5.93;2.42;;;;;;;;;;4971114;28;92360;-79
2023/09/06 03:42:08;;;;;;;5.75;2.58;;;;;;;;;;4971522;28;92488;-80
2023/09/06 03:44:38;;;;;;;6.88;3.00;;;;;;;;;;4969970;28;95047;-79
2023/09/06 03:47:13;;;;;;;7.35;2.90;;;;;;;;;;4969334;28;94077;-79
2023/09/06 03:49:40;;;;;;;6.53;2.60;;;;;;;;;;4969620;28;92576;-79
2023/09/06 03:52:07;;;;;;;5.90;2.80;;;;;;;;;;4976571;28;95793;-79
2023/09/06 03:54:34;;;;;;;6.25;2.63;;;;;;;;;;4975712;28;94756;-79
2023/09/06 03:57:01;;;;;;;6.75;2.78;;;;;;;;;;4975362;28;92510;-79
2023/09/06 03:59:31;;;;;;;6.13;2.60;;;;;;;;;;4971945;28;95524;-79
2023/09/06 04:01:58;;;;;;;6.88;2.72;;;;;;;;;;4974087;28;91836;-79
2023/09/06 04:04:28;;;;;;;8.07;2.80;;;;;;;;;;4976403;28;92874;-81
2023/09/06 04:06:56;;;;;;;8.85;2.78;;;;;;;;;;4973540;28;95443;-79
2023/09/06 04:09:28;;;;;;;5.63;2.70;;;;;;;;;;4971735;28;95633;-79
2023/09/06 04:11:58;;;;;;;7.50;2.90;;;;;;;;;;4976006;28;97156;-79
2023/09/06 04:14:25;;;;;;;5.78;2.60;;;;;;;;;;4981805;28;93209;-79
2023/09/06 04:16:53;;;;;;;6.05;2.60;;;;;;;;;;4980953;28;92433;-79
2023/09/06 04:19:21;;;;;;;6.43;2.70;;;;;;;;;;4979383;28;94386;-79
2023/09/06 04:21:48;;;;;;;6.18;2.60;;;;;;;;;;4977340;28;92369;-79
2023/09/06 04:24:18;;;;;;;9.90;2.75;;;;;;;;;;4970052;28;94270;-78
2023/09/06 04:26:46;;;;;;;5.75;2.50;;;;;;;;;;4974770;28;94973;-79
2023/09/06 04:29:16;;;;;;;6.88;2.67;;;;;;;;;;4969317;28;92531;-79
2023/09/06 04:31:44;;;;;;;6.68;2.67;;;;;;;;;;4963849;28;95457;-78
2023/09/06 04:34:12;;;;;;;5.93;2.67;;;;;;;;;;4947560;28;97473;-79
2023/09/06 04:36:38;;;;;;;9.18;2.50;;;;;;;;;;4948679;28;92772;-79
2023/09/06 04:39:07;;;;;;;6.22;2.55;;;;;;;;;;4951708;28;96771;-79
2023/09/06 04:41:36;;;;;;;6.50;2.78;;;;;;;;;;4946772;28;92582;-79
2023/09/06 04:44:05;;;;;;;5.47;2.40;;;;;;;;;;4948979;28;95360;-79
2023/09/06 04:46:31;;;;;;;5.00;2.40;;;;;;;;;;4949608;28;93876;-79
2023/09/06 04:48:58;;;;;;;;;;;;;;;;;;4949644;28;92857;-79
2023/09/06 04:51:25;;;;;;;6.60;2.35;;;;;;;;;;4950398;28;113133;-80
2023/09/06 04:53:53;;;;;;;6.93;2.50;;;;;;;;;;4948676;28;96508;-80
2023/09/06 04:56:26;;;;;;;5.63;2.50;;;;;;;;;;4944973;28;92771;-79
2023/09/06 04:58:52;;;;;;;6.75;2.53;;;;;;;;;;4949037;28;94782;-79
2023/09/06 05:01:19;;;;;;;8.88;2.88;;;;;;;;;;4935430;28;95982;-80
2023/09/06 05:03:46;;;;;;;7.90;3.15;;;;;;;;;;4934875;28;94225;-79
2023/09/06 05:06:13;;;;;;;10.70;3.40;;;;;;;;;;4949155;28;93141;-80
2023/09/06 05:08:41;;;;;;;8.15;2.75;;;;;;;;;;4947337;28;93066;-80
2023/09/06 05:11:16;;;;;;;6.30;2.75;;;;;;;;;;4947956;28;95388;-78
2023/09/06 05:13:45;;;;;;;7.38;2.78;;;;;;;;;;4947585;28;95258;-78
2023/09/06 05:16:12;;;;;;;6.45;2.65;;;;;;;;;;4948422;28;91708;-79
2023/09/06 05:18:39;;;;;;;;;;;;;;;;;;4948429;28;94541;-78
2023/09/06 05:21:06;;;;;;;7.50;3.15;;;;;;;;;;4949398;28;96390;-78
2023/09/06 05:23:36;;;;;;;8.50;3.05;;;;;;;;;;4949917;28;95553;-78
2023/09/06 05:26:03;;;;;;;8.40;2.90;;;;;;;;;;4947537;28;95905;-78
2023/09/06 05:28:38;;;;;;;8.10;3.50;;;;;;;;;;4948112;28;92601;-79
2023/09/06 05:31:06;;;;;;;7.30;3.30;;;;;;;;;;4949411;28;95589;-79
2023/09/06 05:33:37;;;;;;;8.02;3.10;;;;;;;;;;4967462;28;96291;-79
2023/09/06 05:36:04;;;;;;;6.38;3.05;;;;;;;;;;4967614;28;92971;-79
2023/09/06 05:38:31;;;;;;;8.45;3.10;;;;;;;;;;4969682;28;93061;-79
2023/09/06 05:41:00;;;;;;;9.40;3.17;;;;;;;;;;4969507;28;94744;-79
2023/09/06 05:43:31;;;;;;;7.82;3.33;;;;;;;;;;4969589;28;93300;-79
2023/09/06 05:45:58;;;;;;;9.98;3.45;;;;;;;;;;4970940;28;95019;-79
2023/09/06 05:48:25;;;;;;;8.38;3.50;;;;;;;;;;4965988;28;95268;-79
2023/09/06 05:50:52;;;;;;;;;;;;;;;;;;4968043;28;97667;-79
2023/09/06 05:53:19;;;;;;;7.07;3.03;;;;;;;;;;4969071;28;94342;-78
2023/09/06 05:55:46;;;;;;;8.73;3.03;;;;;;;;;;4967514;28;92492;-79
2023/09/06 05:58:13;;;;;;;7.90;3.40;;;;;;;;;;4957516;28;92691;-79
2023/09/06 06:00:41;;;;;;;10.55;4.15;;;;;;;;;;4972380;28;93670;-79
2023/09/06 06:03:08;;;;;;;9.23;3.88;;;;;;;;;;4971318;28;92630;-79
2023/09/06 06:05:34;;;;;;;10.20;4.20;;;;;;;;;;4967524;28;96058;-79
2023/09/06 06:08:01;;;;;;;9.40;4.03;;;;;;;;;;4966660;28;93069;-79
2023/09/06 06:10:34;;;;;;;9.15;3.70;;;;;;;;;;4957912;28;93967;-79
2023/09/06 06:13:03;;;;;;;11.30;4.60;;;;;;;;;;4966260;28;98553;-79
2023/09/06 06:15:30;;;;;;;11.25;3.95;;;;;;;;;;4974909;28;93029;-79
2023/09/06 06:17:56;;;;;;;14.13;3.65;;;;;;;;;;4971604;28;93060;-79
2023/09/06 06:20:23;;;;;;;11.18;3.67;;;;;;;;;;4969800;28;94275;-81
2023/09/06 06:23:04;;;;;;;10.98;3.60;;;;;;;;;;4973543;28;92459;-80
2023/09/06 06:25:30;;;;;;;10.77;3.50;;;;;;;;;;4970928;28;94644;-80
2023/09/06 06:27:57;;;;;;;8.13;3.45;;;;;;;;;;4975251;28;93407;-81
2023/09/06 06:30:24;;;;;;;11.25;3.50;;;;;;;;;;4963857;28;92446;-80
2023/09/06 06:32:50;;;;;;;12.20;4.07;;;;;;;;;;4964961;28;92683;-80
2023/09/06 06:35:18;;;;;;;10.60;3.78;;;;;;;;;;4977104;28;92470;-80
2023/09/06 06:37:47;;;;;;;10.68;4.53;;;;;;;;;;4990094;28;94998;-80
2023/09/06 06:40:15;;;;;;;12.45;4.00;;;;;;;;;;4991085;28;93059;-79
2023/09/06 06:42:43;;;;;;;12.57;4.10;;;;;;;;;;4991765;28;93068;-79
2023/09/06 06:45:10;;;;;;;11.07;4.22;;;;;;;;;;4988059;28;93285;-79
2023/09/06 06:47:37;;;;;;;9.35;4.47;;;;;;;;;;5016326;22;95951;-89
2023/09/06 06:50:20;;;;;;;11.63;4.03;;;;;;;;;;5010096;28;92630;-89
2023/09/06 06:53:10;;;;;;;11.27;3.70;;;;;;;;;;5030510;28;92729;-93
2023/09/06 06:56:05;;;;;;;12.48;5.22;;;;;;;;;;4974525;28;93005;-92
2023/09/06 06:58:56;;;;;;;11.35;4.13;;;;;;;;;;4971089;28;92432;-91
2023/09/06 07:01:31;;;;;;;11.88;4.47;;;;;;;;;;4947510;28;92759;-90
2023/09/06 07:04:10;;;;;;;13.52;4.30;;;;;;;;;;5012894;28;95810;-93
2023/09/06 07:06:48;;;;;;;16.17;4.70;;;;;;;;;;5013799;28;97323;-89
2023/09/06 07:09:29;;;;;;;15.48;4.97;;;;;;;;;;4992755;28;95756;-89
2023/09/06 07:12:12;;;;;;;26.85;6.10;;;;;;;;;;5027386;28;92164;-89
2023/09/06 07:14:56;;;;;;;;;;;;;;;;;;5019641;28;92260;-86
2023/09/06 07:17:34;;;;;;;14.23;4.47;;;;;;;;;;5014068;28;92421;-87
2023/09/06 07:20:09;;;;;;;11.15;3.65;;;;;;;;;;5005620;22;93314;-82
2023/09/06 07:22:36;;;;;;;10.32;3.25;;;;;;;;;;5011612;28;93020;-81
2023/09/06 07:25:04;;;;;;;9.02;3.10;;;;;;;;;;4992525;28;93040;-81
2023/09/06 07:27:32;;;;;;;10.93;3.10;;;;;;;;;;5011298;28;93016;-80
2023/09/06 07:29:58;;;;;;;10.75;3.10;;;;;;;;;;5009238;28;95386;-82
2023/09/06 07:32:25;;;;;;;8.95;3.15;;;;;;;;;;5011217;28;92837;-80
2023/09/06 07:34:51;;;;;;;9.20;3.00;;;;;;;;;;5010354;28;92913;-81
2023/09/06 07:37:18;;;;;;;11.05;3.10;;;;;;;;;;5014178;28;94418;-82
2023/09/06 07:39:44;;;;;;;8.23;2.90;;;;;;;;;;5011265;28;93629;-82
2023/09/06 07:42:11;;;;;;;11.38;3.08;;;;;;;;;;5011420;28;93218;-81
2023/09/06 07:44:38;;;;;;;6.10;2.53;;;;;;;;;;4993929;28;92856;-80
2023/09/06 07:47:04;;;;;;;7.78;2.72;;;;;;;;;;5011334;28;93031;-80
2023/09/06 07:49:31;;;;;;;8.05;2.80;;;;;;;;;;4992221;28;92895;-81
2023/09/06 07:51:59;;;;;;;8.13;2.83;;;;;;;;;;5011451;28;93150;-81
2023/09/06 07:54:25;;;;;;;7.13;2.83;;;;;;;;;;5010489;28;94875;-82
2023/09/06 07:56:52;;;;;;;6.75;2.78;;;;;;;;;;5012553;28;93155;-82
2023/09/06 07:59:20;;;;;;;8.45;2.65;;;;;;;;;;5013701;28;92918;-81
2023/09/06 08:01:47;;;;;;;7.70;2.90;;;;;;;;;;4991754;28;95579;-82
2023/09/06 08:04:13;;;;;;;6.43;2.58;;;;;;;;;;5010375;28;93015;-82
2023/09/06 08:06:40;;;;;;;6.68;2.67;;;;;;;;;;5010532;28;93257;-82
2023/09/06 08:09:07;;;;;;;7.22;2.70;;;;;;;;;;5010936;28;92856;-82
2023/09/06 08:11:33;;;;;;;8.77;2.65;;;;;;;;;;5011336;28;91738;-82
2023/09/06 08:14:00;;;;;;;6.10;2.50;;;;;;;;;;5010904;28;92555;-82
2023/09/06 08:16:26;;;;;;;6.50;2.55;;;;;;;;;;5003565;28;93125;-81
2023/09/06 08:18:55;;;;;;;6.85;2.60;;;;;;;;;;5002214;28;95270;-82
2023/09/06 08:21:22;;;;;;;7.60;2.50;;;;;;;;;;5006074;28;92871;-81
2023/09/06 08:23:49;;;;;;;6.25;2.25;;;;;;;;;;5012441;28;92498;-81
2023/09/06 08:26:15;;;;;;;7.82;2.78;;;;;;;;;;5011414;28;93400;-81
2023/09/06 08:28:42;;;;;;;5.97;2.40;;;;;;;;;;4996589;28;93690;-81
2023/09/06 08:31:08;;;;;;;5.90;2.38;;;;;;;;;;4993761;28;92432;-82
2023/09/06 08:33:36;;;;;;;6.82;2.60;;;;;;;;;;4974845;28;92880;-81
2023/09/06 08:36:03;;;;;;;7.35;2.45;;;;;;;;;;4995251;28;92736;-81
2023/09/06 08:38:29;;;;;;;6.72;2.42;;;;;;;;;;4979867;28;92520;-81
2023/09/06 08:40:56;;;;;;;6.20;2.30;;;;;;;;;;5011194;28;92392;-82
2023/09/06 08:43:25;;;;;;;6.05;2.13;;;;;;;;;;4991329;28;94797;-82
2023/09/06 08:45:52;;;;;;;6.03;2.30;;;;;;;;;;5011343;28;95401;-82
2023/09/06 08:48:20;;;;;;;5.20;2.20;;;;;;;;;;4997852;28;93596;-82
2023/09/06 08:50:48;;;;;;;6.85;2.45;;;;;;;;;;5010530;28;92451;-82
2023/09/06 08:53:15;;;;;;;7.55;2.50;;;;;;;;;;4981095;28;93259;-82
2023/09/06 08:55:42;;;;;;;6.88;2.28;;;;;;;;;;5009487;28;93055;-82
2023/09/06 08:58:09;;;;;;;5.40;2.25;;;;;;;;;;4972158;28;92518;-82
2023/09/06 09:00:36;;;;;;;5.95;2.40;;;;;;;;;;5000093;28;92715;-81
2023/09/06 09:03:03;;;;;;;4.80;2.10;;;;;;;;;;5012509;28;93698;-82
2023/09/06 09:05:30;;;;;;;;;;;;;;;;;;5010347;28;93049;-82
2023/09/06 09:07:58;;;;;;;5.75;2.10;;;;;;;;;;4993305;28;95585;-82
2023/09/06 09:10:29;;;;;;;7.05;2.30;;;;;;;;;;5004128;28;92817;-82
2023/09/06 09:12:56;;;;;;;5.22;2.28;;;;;;;;;;5009844;28;92854;-82
2023/09/06 09:15:26;;;;;;;6.97;2.25;;;;;;;;;;4993762;28;94585;-82
2023/09/06 09:17:53;;;;;;;4.80;2.20;;;;;;;;;;4991042;28;93257;-80
2023/09/06 09:20:27;;;;;;;5.65;2.40;;;;;;;;;;5007677;28;92717;-81
2023/09/06 09:22:58;;;;;;;6.03;2.30;;;;;;;;;;5008739;28;93330;-81
2023/09/06 09:25:24;;;;;;;6.53;2.28;;;;;;;;;;5000512;28;91860;-82
2023/09/06 09:27:55;;;;;;;6.53;2.65;;;;;;;;;;5010271;28;93016;-83
2023/09/06 09:30:23;;;;;;;6.82;2.33;;;;;;;;;;4991913;28;92502;-82
2023/09/06 09:32:58;;;;;;;5.57;2.05;;;;;;;;;;4996028;28;94890;-83
2023/09/06 09:35:25;;;;;;;7.35;2.20;;;;;;;;;;4979494;28;93418;-82
2023/09/06 09:37:52;;;;;;;6.13;2.17;;;;;;;;;;5010083;28;92683;-82
2023/09/06 09:40:20;;;;;;;5.85;2.35;;;;;;;;;;5009689;28;92471;-82
2023/09/06 09:42:53;;;;;;;5.57;1.98;;;;;;;;;;4976674;28;95387;-82
2023/09/06 09:45:22;;;;;;;6.15;2.17;;;;;;;;;;4972637;28;92454;-83
2023/09/06 09:47:49;;;;;;;6.32;2.20;;;;;;;;;;4994875;28;92758;-84
2023/09/06 09:50:28;;;;;;;5.10;2.10;;;;;;;;;;5003649;28;92199;-83
2023/09/06 09:52:55;;;;;;;4.65;1.90;;;;;;;;;;5009747;28;92527;-83
2023/09/06 09:55:32;;;;;;;6.95;2.30;;;;;;;;;;5009965;28;93047;-83
2023/09/06 09:57:58;;;;;;;6.03;2.00;;;;;;;;;;4982608;28;95031;-83
2023/09/06 10:00:28;;;;;;;4.95;2.13;;;;;;;;;;4991903;28;95393;-83
2023/09/06 10:02:57;;;;;;;5.25;1.92;;;;;;;;;;5009414;28;93639;-83
2023/09/06 10:05:29;;;;;;;5.65;2.22;;;;;;;;;;5009780;28;92399;-83
2023/09/06 10:07:56;;;;;;;5.63;2.15;;;;;;;;;;4991759;28;92482;-84
2023/09/06 10:10:22;;;;;;;;;;;;;;;;;;5007610;28;94564;-83
2023/09/06 10:12:50;;;;;;;6.65;2.42;;;;;;;;;;4981844;28;92795;-83
2023/09/06 10:15:23;;;;;;;6.53;2.10;;;;;;;;;;5007846;28;93340;-83
2023/09/06 10:17:50;;;;;;;;;;;;;;;;;;5011026;28;92510;-84
2023/09/06 10:20:16;;;;;;;7.00;2.25;;;;;;;;;;5011748;28;93183;-84
2023/09/06 10:22:43;;;;;;;;;;;;;;;;;;5008908;28;95579;-84
2023/09/06 10:25:10;;;;;;;7.90;2.10;;;;;;;;;;5011094;28;99602;-84
2023/09/06 10:27:50;;;;;;;6.28;2.28;;;;;;;;;;5010656;28;93019;-84
2023/09/06 10:30:21;;;;;;;7.88;2.20;;;;;;;;;;4995290;28;93072;-84
2023/09/06 10:32:48;;;;;;;5.97;2.20;;;;;;;;;;5009656;28;92928;-85
2023/09/06 10:35:14;;;;;;;;;;;;;;;;;;5010721;28;93737;-84
2023/09/06 10:38:00;;;;;;;5.78;2.00;;;;;;;;;;5011572;28;92549;-83
2023/09/06 10:40:47;;;;;;;6.88;2.10;;;;;;;;;;4980226;28;94408;-84
2023/09/06 10:43:14;;;;;;;5.65;2.30;;;;;;;;;;5009881;28;92876;-83
2023/09/06 10:45:40;;;;;;;7.50;2.10;;;;;;;;;;4995259;28;94067;-83
2023/09/06 10:48:10;;;;;;;7.78;2.70;;;;;;;;;;4993169;28;95780;-82
2023/09/06 10:50:37;;;;;;;7.47;2.35;;;;;;;;;;5013459;28;94558;-82
2023/09/06 10:53:04;;;;;;;5.30;2.20;;;;;;;;;;5012559;28;92738;-83
2023/09/06 10:55:43;;;;;;;6.25;2.22;;;;;;;;;;5008546;28;95620;-83
2023/09/06 10:58:10;;;;;;;7.18;2.28;;;;;;;;;;4994133;28;92569;-82
2023/09/06 11:00:37;;;;;;;7.40;2.15;;;;;;;;;;5017701;28;93395;-82
2023/09/06 11:03:06;;;;;;;6.13;2.25;;;;;;;;;;5018738;28;93243;-82
2023/09/06 11:05:35;;;;;;;5.50;2.25;;;;;;;;;;5014879;28;91630;-83
2023/09/06 11:08:04;;;;;;;5.32;2.10;;;;;;;;;;5014650;28;93448;-82
2023/09/06 11:10:38;;;;;;;6.43;2.00;;;;;;;;;;5018006;28;93370;-82
2023/09/06 11:13:09;;;;;;;7.63;2.20;;;;;;;;;;5020799;28;95248;-82
2023/09/06 11:15:36;;;;;;;6.35;2.20;;;;;;;;;;5020658;28;95173;-82
2023/09/06 11:18:03;;;;;;;6.22;1.90;;;;;;;;;;5008771;28;93144;-84
2023/09/06 11:20:31;;;;;;;7.13;2.30;;;;;;;;;;5017417;28;92992;-84
2023/09/06 11:22:58;;;;;;;5.68;2.10;;;;;;;;;;5015291;28;93023;-84
2023/09/06 11:25:26;;;;;;;6.97;1.98;;;;;;;;;;5013326;28;92517;-84
2023/09/06 11:27:56;;;;;;;7.32;2.10;;;;;;;;;;5011540;28;92821;-82
2023/09/06 11:30:23;;;;;;;6.43;1.95;;;;;;;;;;5012595;28;93731;-82
2023/09/06 11:32:51;;;;;;;6.28;2.20;;;;;;;;;;5011931;28;92564;-83
2023/09/06 11:35:20;;;;;;;4.20;2.00;;;;;;;;;;5003469;28;95279;-83
2023/09/06 11:37:50;;;;;;;4.60;2.08;;;;;;;;;;5008820;28;95540;-82
2023/09/06 11:40:20;;;;;;;5.57;2.10;;;;;;;;;;5012171;28;95993;-83
2023/09/06 11:42:53;;;;;;;5.93;2.08;;;;;;;;;;5007075;28;93525;-82
2023/09/06 11:45:24;;;;;;;6.30;2.20;;;;;;;;;;5004547;28;92961;-82
2023/09/06 11:47:56;;;;;;;6.40;2.05;;;;;;;;;;5010387;28;94104;-82
2023/09/06 11:50:23;;;;;;;4.28;1.92;;;;;;;;;;4978761;28;92523;-81
2023/09/06 11:52:53;;;;;;;4.75;2.00;;;;;;;;;;5006462;28;92566;-83
2023/09/06 11:55:26;;;;;;;5.38;1.98;;;;;;;;;;4994057;28;92647;-83
2023/09/06 11:57:56;;;;;;;4.75;2.08;;;;;;;;;;5000599;28;95822;-83
2023/09/06 12:00:27;;;;;;;4.05;1.90;;;;;;;;;;4986289;28;92488;-83
2023/09/06 12:03:10;;;;;;;4.63;1.80;;;;;;;;;;4983659;28;98325;-84
2023/09/06 12:05:40;;;;;;;5.20;1.80;;;;;;;;;;4998597;28;92677;-83
2023/09/06 12:08:23;;;;;;;4.15;1.98;;;;;;;;;;5009899;28;92668;-82
2023/09/06 12:10:58;;;;;;;4.53;1.95;;;;;;;;;;5002485;28;93169;-82
2023/09/06 12:13:25;;;;;;;4.82;1.90;;;;;;;;;;5010391;28;92731;-83
2023/09/06 12:15:52;;;;;;;4.35;1.85;;;;;;;;;;5011710;28;92758;-83
2023/09/06 12:18:18;;;;;;;5.72;2.00;;;;;;;;;;5011033;28;93297;-83
2023/09/06 12:20:45;;;;;;;4.38;2.00;;;;;;;;;;5011440;28;91741;-83
2023/09/06 12:23:12;;;;;;;4.40;1.90;;;;;;;;;;4995764;28;92549;-83
2023/09/06 12:25:38;;;;;;;2.97;1.60;;;;;;;;;;5010878;28;92605;-82
2023/09/06 12:28:05;;;;;;;4.50;1.92;;;;;;;;;;5009833;28;95200;-81
2023/09/06 12:30:31;;;;;;;5.03;1.77;;;;;;;;;;4998841;28;93302;-83
2023/09/06 12:32:58;;;;;;;4.00;1.90;;;;;;;;;;4973031;28;92881;-83
2023/09/06 12:35:24;;;;;;;3.05;1.73;;;;;;;;;;4993266;28;92736;-83
2023/09/06 12:37:52;;;;;;;;;;;;;;;;;;4997074;28;93023;-82
2023/09/06 12:40:24;;;;;;;3.80;1.67;;;;;;;;;;5015185;28;92400;-82
2023/09/06 12:42:51;;;;;;;4.40;1.95;;;;;;;;;;5014404;28;92777;-83
2023/09/06 12:45:23;;;;;;;4.38;1.95;;;;;;;;;;5011984;28;92242;-83
2023/09/06 12:47:50;;;;;;;4.53;2.00;;;;;;;;;;5010338;28;94322;-83
2023/09/06 12:50:17;;;;;;;4.80;1.90;;;;;;;;;;4994602;28;93305;-82
2023/09/06 12:52:43;;;;;;;4.35;1.80;;;;;;;;;;4990610;28;94908;-86
2023/09/06 12:55:10;;;;;;;4.18;1.90;;;;;;;;;;5011599;28;95589;-85
2023/09/06 12:57:36;;;;;;;4.60;1.70;;;;;;;;;;5011173;28;93589;-85
2023/09/06 13:00:05;;;;;;;4.15;1.85;;;;;;;;;;5011353;28;92505;-85
2023/09/06 13:02:33;;;;;;;4.32;1.70;;;;;;;;;;5012465;28;93594;-85
2023/09/06 13:05:00;;;;;;;3.83;1.83;;;;;;;;;;5014363;28;92976;-85
2023/09/06 13:07:28;;;;;;;4.50;1.90;;;;;;;;;;5010501;28;93122;-85
2023/09/06 13:09:55;;;;;;;4.28;1.90;;;;;;;;;;5005478;28;92536;-85
2023/09/06 13:12:21;;;;;;;;;;;;;;;;;;4989978;28;92548;-85
2023/09/06 13:14:49;;;;;;;5.07;1.90;;;;;;;;;;4994078;28;105449;-85
2023/09/06 13:17:16;;;;;;;3.03;1.70;;;;;;;;;;5009085;28;95097;-85
2023/09/06 13:19:43;;;;;;;3.17;1.73;;;;;;;;;;4984772;28;92968;-85
2023/09/06 13:22:09;;;;;;;5.10;2.00;;;;;;;;;;5009286;28;92991;-85
2023/09/06 13:24:37;;;;;;;7.07;2.10;;;;;;;;;;5006948;28;93367;-83
2023/09/06 13:27:04;;;;;;;4.13;1.80;;;;;;;;;;5004259;28;92461;-82
2023/09/06 13:29:33;;;;;;;3.70;1.80;;;;;;;;;;5014941;28;92882;-83
2023/09/06 13:32:00;;;;;;;5.57;1.88;;;;;;;;;;4994403;28;92474;-83
2023/09/06 13:34:27;;;;;;;4.47;2.00;;;;;;;;;;5010580;28;92848;-83
2023/09/06 13:36:54;;;;;;;3.40;1.95;;;;;;;;;;4991478;28;94132;-83
2023/09/06 13:39:21;;;;;;;4.88;2.00;;;;;;;;;;4991578;28;92447;-82
2023/09/06 13:41:48;;;;;;;4.25;1.75;;;;;;;;;;5008739;28;94851;-82
2023/09/06 13:44:15;;;;;;;5.22;1.90;;;;;;;;;;4999059;28;93202;-83
2023/09/06 13:46:41;;;;;;;;;;;;;;;;;;5006820;28;93572;-83
2023/09/06 13:49:07;;;;;;;5.85;2.20;;;;;;;;;;5014187;28;103502;-82
2023/09/06 13:51:35;;;;;;;3.90;1.75;;;;;;;;;;5011940;28;92526;-82
2023/09/06 13:54:02;;;;;;;4.75;2.00;;;;;;;;;;4993281;28;93167;-82
2023/09/06 13:56:29;;;;;;;5.35;2.17;;;;;;;;;;5020737;28;93362;-83
2023/09/06 13:58:56;;;;;;;4.05;2.00;;;;;;;;;;5027623;28;91749;-82
2023/09/06 14:01:22;;;;;;;4.63;2.10;;;;;;;;;;5027717;28;92653;-82
2023/09/06 14:03:49;;;;;;;4.35;1.92;;;;;;;;;;5009361;28;92407;-82
2023/09/06 14:06:16;;;;;;;;;;;;;;;;;;5017167;28;95244;-81
2023/09/06 14:08:43;;;;;;;3.78;1.90;;;;;;;;;;5019624;28;108020;-82
2023/09/06 14:11:10;;;;;;;;;;;;;;;;;;5007112;28;92529;-82
2023/09/06 14:13:36;;;;;;;4.30;1.90;;;;;;;;;;5027587;28;92472;-81
2023/09/06 14:16:03;;;;;;;3.20;1.65;;;;;;;;;;5011920;28;93071;-81
2023/09/06 14:18:30;;;;;;;4.68;2.00;;;;;;;;;;4993881;28;92466;-82
2023/09/06 14:20:57;;;;;;;4.47;1.92;;;;;;;;;;5015886;28;92807;-82
2023/09/06 14:23:26;;;;;;;5.05;2.00;;;;;;;;;;5017327;28;92436;-82
2023/09/06 14:25:53;;;;;;;5.75;2.05;;;;;;;;;;5017256;28;92384;-81
2023/09/06 14:28:19;;;;;;;;;;;;;;;;;;5017823;28;92768;-82
2023/09/06 14:30:46;;;;;;;3.58;1.80;;;;;;;;;;5000228;28;95556;-81
2023/09/06 14:33:12;;;;;;;;;;;;;;;;;;5019547;28;92785;-81
2023/09/06 14:35:39;;;;;;;5.30;2.03;;;;;;;;;;5002566;28;93493;-82
2023/09/06 14:38:06;;;;;;;4.20;1.75;;;;;;;;;;4986208;28;92800;-82
2023/09/06 14:40:40;;;;;;;4.10;1.80;;;;;;;;;;5013188;28;92785;-82
2023/09/06 14:43:06;;;;;;;5.03;2.20;;;;;;;;;;5012407;28;93068;-82
2023/09/06 14:45:34;;;;;;;3.47;1.80;;;;;;;;;;4993762;28;92552;-83
2023/09/06 14:48:07;;;;;;;4.55;1.80;;;;;;;;;;4999427;28;93098;-82
2023/09/06 14:50:34;;;;;;;4.57;1.80;;;;;;;;;;4972379;28;92824;-83
2023/09/06 14:53:01;;;;;;;4.07;1.80;;;;;;;;;;5006484;28;92698;-82
2023/09/06 14:55:27;;;;;;;;;;;;;;;;;;5010255;28;95471;-83
2023/09/06 14:57:54;;;;;;;3.92;1.83;;;;;;;;;;5004388;28;92450;-82